Time;durP1;ratioP1;P1;durP2;ratioP2;P2;SDS_P1;SDS_P2;PMS_P1;PMS_P2;Temp;Humidity;BMP_temperature;BMP_pressure;BME280_temperature;BME280_humidity;BME280_pressure;Samples;Min_cycle;Max_cycle;Signal;HPM_P1;HPM_P2
2021/05/11 00:00:00;;;;;;;5.63;3.97;;;;;;;;;;5136655;28;20446;-71
2021/05/11 00:02:29;;;;;;;4.50;3.37;;;;;;;;;;5137526;28;20489;-71
2021/05/11 00:05:03;;;;;;;5.90;3.70;;;;;;;;;;5137201;28;20472;-70
2021/05/11 00:07:30;;;;;;;7.30;3.73;;;;;;;;;;5135535;28;20534;-70
2021/05/11 00:10:05;;;;;;;4.40;3.10;;;;;;;;;;5137189;28;20549;-71
2021/05/11 00:12:33;;;;;;;9.23;3.40;;;;;;;;;;5134773;28;20457;-70
2021/05/11 00:15:01;;;;;;;11.70;3.23;;;;;;;;;;5136646;28;20989;-70
2021/05/11 00:17:29;;;;;;;3.97;2.73;;;;;;;;;;5136771;28;20881;-70
2021/05/11 00:20:00;;;;;;;3.70;2.70;;;;;;;;;;5136822;28;20541;-70
2021/05/11 00:22:27;;;;;;;4.27;2.50;;;;;;;;;;5136715;28;20454;-71
2021/05/11 00:24:55;;;;;;;6.00;2.30;;;;;;;;;;5139560;27;20461;-71
2021/05/11 00:27:23;;;;;;;3.70;2.40;;;;;;;;;;5141707;27;20537;-70
2021/05/11 00:29:51;;;;;;;4.00;2.23;;;;;;;;;;5142854;27;20547;-71
2021/05/11 00:32:19;;;;;;;3.90;1.93;;;;;;;;;;5136970;27;20548;-71
2021/05/11 00:34:46;;;;;;;3.80;2.50;;;;;;;;;;5139929;27;20477;-71
2021/05/11 00:37:13;;;;;;;4.80;2.63;;;;;;;;;;5140538;27;20537;-71
2021/05/11 00:39:41;;;;;;;8.20;2.43;;;;;;;;;;5141468;27;20450;-70
2021/05/11 00:42:08;;;;;;;5.70;2.67;;;;;;;;;;5141087;27;20458;-72
2021/05/11 00:44:36;;;;;;;4.47;2.10;;;;;;;;;;5142718;27;20446;-71
2021/05/11 00:47:04;;;;;;;4.90;2.30;;;;;;;;;;5141487;27;20529;-71
2021/05/11 00:49:33;;;;;;;3.23;2.10;;;;;;;;;;5141365;27;20789;-71
2021/05/11 00:52:01;;;;;;;4.23;2.63;;;;;;;;;;5142083;27;20513;-70
2021/05/11 00:54:28;;;;;;;4.33;2.90;;;;;;;;;;5141846;27;20484;-70
2021/05/11 00:56:56;;;;;;;3.67;2.30;;;;;;;;;;5135680;27;20529;-71
2021/05/11 00:59:25;;;;;;;4.30;2.30;;;;;;;;;;5140929;27;20442;-73
2021/05/11 01:01:54;;;;;;;5.50;2.27;;;;;;;;;;5136695;27;20443;-72
2021/05/11 01:04:21;;;;;;;5.87;2.57;;;;;;;;;;5140573;27;20451;-71
2021/05/11 01:06:50;;;;;;;2.80;2.30;;;;;;;;;;5140490;27;20451;-72
2021/05/11 01:09:17;;;;;;;4.37;3.10;;;;;;;;;;5140389;27;20545;-71
2021/05/11 01:11:46;;;;;;;8.30;3.60;;;;;;;;;;5140794;27;20529;-71
2021/05/11 01:14:13;;;;;;;4.47;2.70;;;;;;;;;;5139755;27;20481;-71
2021/05/11 01:16:43;;;;;;;3.57;2.67;;;;;;;;;;5140014;27;20454;-71
2021/05/11 01:19:13;;;;;;;5.60;2.70;;;;;;;;;;5126981;27;20479;-71
2021/05/11 01:21:46;;;;;;;4.63;3.00;;;;;;;;;;5119323;28;20741;-71
2021/05/11 01:24:17;;;;;;;5.10;2.83;;;;;;;;;;5120083;27;20453;-71
2021/05/11 01:26:52;;;;;;;4.40;3.00;;;;;;;;;;5119269;27;20451;-71
2021/05/11 01:29:32;;;;;;;5.10;3.00;;;;;;;;;;5138847;27;20461;-71
2021/05/11 01:48:56;;;;;;;6.47;3.27;;;;;;;;;;5128659;27;20426;-70
2021/05/11 02:11:06;;;;;;;4.77;2.50;;;;;;;;;;5138191;27;20756;-70
2021/05/11 02:24:34;;;;;;;3.50;2.40;;;;;;;;;;5138295;27;20410;-70
2021/05/11 02:27:02;;;;;;;4.20;2.40;;;;;;;;;;5138192;27;20912;-73
2021/05/11 02:29:30;;;;;;;4.40;2.00;;;;;;;;;;5136366;27;20500;-71
2021/05/11 02:32:00;;;;;;;3.27;2.27;;;;;;;;;;5138452;27;20450;-72
2021/05/11 02:34:28;;;;;;;3.87;2.00;;;;;;;;;;5138032;27;20469;-72
2021/05/11 02:36:55;;;;;;;4.33;2.47;;;;;;;;;;5138171;27;20450;-71
2021/05/11 02:39:22;;;;;;;2.80;2.17;;;;;;;;;;5137428;27;20442;-71
2021/05/11 02:41:49;;;;;;;4.70;2.10;;;;;;;;;;5138081;27;20497;-71
2021/05/11 02:44:19;;;;;;;3.80;2.37;;;;;;;;;;5138289;27;20473;-72
2021/05/11 02:46:47;;;;;;;2.60;1.80;;;;;;;;;;5137017;27;20925;-72
2021/05/11 02:49:17;;;;;;;6.83;3.20;;;;;;;;;;5137850;27;21166;-71
2021/05/11 02:51:44;;;;;;;2.70;2.07;;;;;;;;;;5137871;27;20443;-71
2021/05/11 02:54:12;;;;;;;4.50;2.43;;;;;;;;;;5137342;27;20805;-71
2021/05/11 02:56:39;;;;;;;10.80;2.13;;;;;;;;;;5137405;27;20518;-71
2021/05/11 02:59:06;;;;;;;5.10;2.93;;;;;;;;;;5137380;27;20466;-71
2021/05/11 03:01:35;;;;;;;4.83;2.60;;;;;;;;;;5138510;27;20516;-71
2021/05/11 03:04:03;;;;;;;3.00;2.00;;;;;;;;;;5137368;27;20541;-71
2021/05/11 03:06:30;;;;;;;3.57;2.00;;;;;;;;;;5137863;27;20466;-71
2021/05/11 03:08:58;;;;;;;4.07;2.37;;;;;;;;;;5138124;27;20465;-71
2021/05/11 03:11:25;;;;;;;3.37;2.43;;;;;;;;;;5137674;27;20457;-71
2021/05/11 03:13:52;;;;;;;5.30;2.23;;;;;;;;;;5136689;27;20489;-71
2021/05/11 03:16:20;;;;;;;2.83;1.90;;;;;;;;;;5137664;27;20525;-72
2021/05/11 03:18:50;;;;;;;5.77;2.30;;;;;;;;;;5138001;27;20465;-71
2021/05/11 03:21:18;;;;;;;3.97;1.70;;;;;;;;;;5135135;27;20438;-71
2021/05/11 03:23:45;;;;;;;3.40;1.83;;;;;;;;;;5136897;27;20459;-71
2021/05/11 03:26:12;;;;;;;3.80;2.03;;;;;;;;;;5135640;27;20932;-71
2021/05/11 03:28:40;;;;;;;5.00;3.47;;;;;;;;;;5127091;27;20822;-71
2021/05/11 03:31:07;;;;;;;6.23;2.73;;;;;;;;;;5117025;28;20871;-71
2021/05/11 03:33:35;;;;;;;5.43;2.20;;;;;;;;;;5124662;27;20466;-71
2021/05/11 03:36:03;;;;;;;3.30;2.20;;;;;;;;;;5136966;27;20882;-72
2021/05/11 03:38:31;;;;;;;6.00;2.30;;;;;;;;;;5137720;28;20871;-71
2021/05/11 03:40:59;;;;;;;3.43;2.10;;;;;;;;;;5128114;28;20526;-71
2021/05/11 03:43:29;;;;;;;4.30;2.40;;;;;;;;;;5129128;28;20497;-71
2021/05/11 03:45:59;;;;;;;4.60;3.03;;;;;;;;;;5116733;28;20453;-71
2021/05/11 03:48:28;;;;;;;3.87;2.13;;;;;;;;;;5117413;28;20490;-71
2021/05/11 03:51:05;;;;;;;7.30;2.70;;;;;;;;;;5136207;28;20450;-72
2021/05/11 03:53:34;;;;;;;4.33;2.83;;;;;;;;;;5137375;28;20523;-71
2021/05/11 03:56:01;;;;;;;4.50;2.50;;;;;;;;;;5137065;28;20569;-71
2021/05/11 03:58:29;;;;;;;7.80;3.30;;;;;;;;;;5133518;27;20455;-71
2021/05/11 04:01:08;;;;;;;5.30;3.00;;;;;;;;;;5139364;27;20515;-71
2021/05/11 04:03:36;;;;;;;3.87;2.70;;;;;;;;;;5141256;27;20457;-70
2021/05/11 04:06:04;;;;;;;5.40;3.13;;;;;;;;;;5140550;27;20520;-71
2021/05/11 04:08:42;;;;;;;6.53;2.43;;;;;;;;;;5127642;27;20553;-71
2021/05/11 04:11:27;;;;;;;9.43;3.50;;;;;;;;;;5127587;27;20466;-71
2021/05/11 04:14:12;;;;;;;5.10;3.07;;;;;;;;;;5139151;27;20561;-71
2021/05/11 04:16:40;;;;;;;5.97;3.00;;;;;;;;;;5130083;27;20466;-71
2021/05/11 04:19:08;;;;;;;7.40;3.80;;;;;;;;;;5120043;28;20802;-71
2021/05/11 04:21:42;;;;;;;6.17;3.30;;;;;;;;;;5138550;27;20566;-71
2021/05/11 04:24:11;;;;;;;5.43;2.80;;;;;;;;;;5140144;27;20476;-71
2021/05/11 04:26:39;;;;;;;7.80;3.70;;;;;;;;;;5140290;27;20874;-71
2021/05/11 04:29:22;;;;;;;5.97;4.03;;;;;;;;;;5140326;27;20476;-71
2021/05/11 04:31:51;;;;;;;3.70;2.23;;;;;;;;;;5124719;27;20446;-71
2021/05/11 04:34:19;;;;;;;11.13;3.50;;;;;;;;;;5119540;28;20449;-71
2021/05/11 04:36:46;;;;;;;5.93;2.60;;;;;;;;;;5119370;28;20479;-71
2021/05/11 04:39:13;;;;;;;8.20;3.00;;;;;;;;;;5119413;28;20448;-71
2021/05/11 04:41:45;;;;;;;3.77;3.20;;;;;;;;;;5120211;27;20520;-72
2021/05/11 04:44:13;;;;;;;6.40;3.90;;;;;;;;;;5132484;27;20446;-71
2021/05/11 04:46:45;;;;;;;3.47;3.13;;;;;;;;;;5140110;27;21016;-71
2021/05/11 04:49:12;;;;;;;6.27;3.20;;;;;;;;;;5120784;27;20547;-71
2021/05/11 04:51:39;;;;;;;8.60;3.30;;;;;;;;;;5119202;28;20545;-71
2021/05/11 04:54:07;;;;;;;7.30;3.73;;;;;;;;;;5122872;27;20661;-71
2021/05/11 04:56:34;;;;;;;3.83;2.90;;;;;;;;;;5140353;27;20482;-73
2021/05/11 04:59:03;;;;;;;4.50;2.60;;;;;;;;;;5139076;27;20458;-70
2021/05/11 05:01:30;;;;;;;3.07;2.43;;;;;;;;;;5139685;27;20457;-69
2021/05/11 05:03:59;;;;;;;3.40;1.73;;;;;;;;;;5120119;27;20447;-70
2021/05/11 05:06:26;;;;;;;4.03;2.00;;;;;;;;;;5126535;27;20435;-71
2021/05/11 05:08:53;;;;;;;5.83;2.33;;;;;;;;;;5138144;27;20619;-71
2021/05/11 05:11:21;;;;;;;3.00;1.53;;;;;;;;;;5136880;27;20453;-71
2021/05/11 05:13:48;;;;;;;4.13;1.53;;;;;;;;;;5138149;27;20498;-71
2021/05/11 05:16:17;;;;;;;3.47;2.00;;;;;;;;;;5137797;27;20481;-70
2021/05/11 05:18:44;;;;;;;6.33;1.63;;;;;;;;;;5136279;27;20466;-71
2021/05/11 05:21:13;;;;;;;4.13;1.53;;;;;;;;;;5138028;27;20461;-71
2021/05/11 05:23:42;;;;;;;4.23;1.50;;;;;;;;;;5137354;27;20450;-71
2021/05/11 05:26:11;;;;;;;4.43;1.40;;;;;;;;;;5138296;27;20469;-70
2021/05/11 05:28:40;;;;;;;8.57;2.67;;;;;;;;;;5136666;27;20574;-70
2021/05/11 05:31:07;;;;;;;6.27;1.67;;;;;;;;;;5138050;27;20450;-69
2021/05/11 05:33:36;;;;;;;3.63;1.37;;;;;;;;;;5136496;27;20736;-71
2021/05/11 05:36:04;;;;;;;2.60;1.30;;;;;;;;;;5136583;27;20482;-70
2021/05/11 05:38:33;;;;;;;2.23;1.43;;;;;;;;;;5137197;27;20547;-70
2021/05/11 05:41:02;;;;;;;5.53;1.50;;;;;;;;;;5136727;27;20546;-70
2021/05/11 05:43:32;;;;;;;2.77;1.37;;;;;;;;;;5135920;27;20450;-71
2021/05/11 05:45:59;;;;;;;2.93;1.77;;;;;;;;;;5137540;27;20442;-71
2021/05/11 05:48:26;;;;;;;4.43;1.47;;;;;;;;;;5137248;27;20512;-71
2021/05/11 05:50:57;;;;;;;7.40;1.60;;;;;;;;;;5136880;27;20928;-71
2021/05/11 05:53:28;;;;;;;3.73;2.47;;;;;;;;;;5136310;27;20446;-70
2021/05/11 05:55:55;;;;;;;3.90;2.80;;;;;;;;;;5136849;27;20692;-70
2021/05/11 05:58:23;;;;;;;3.90;1.70;;;;;;;;;;5137469;27;20537;-71
2021/05/11 06:00:53;;;;;;;3.60;1.70;;;;;;;;;;5135839;27;20450;-71
2021/05/11 06:03:38;;;;;;;5.20;1.70;;;;;;;;;;5135892;27;20454;-70
2021/05/11 06:06:08;;;;;;;5.97;2.50;;;;;;;;;;5138183;27;20538;-70
2021/05/11 06:08:36;;;;;;;3.17;1.50;;;;;;;;;;5137209;27;20462;-69
2021/05/11 06:11:11;;;;;;;5.73;1.60;;;;;;;;;;5136513;27;20446;-70
2021/05/11 06:13:41;;;;;;;4.03;1.50;;;;;;;;;;5136657;27;20465;-69
2021/05/11 06:18:57;;;;;;;7.90;1.87;;;;;;;;;;5137237;27;20496;-70
2021/05/11 06:21:31;;;;;;;5.57;2.00;;;;;;;;;;5136093;27;20454;-72
2021/05/11 06:24:09;;;;;;;3.10;1.90;;;;;;;;;;5136827;27;20445;-72
2021/05/11 06:26:36;;;;;;;7.40;2.23;;;;;;;;;;5137635;27;20439;-71
2021/05/11 06:29:06;;;;;;;5.53;1.70;;;;;;;;;;5137964;27;21066;-69
2021/05/11 06:31:34;;;;;;;4.43;2.03;;;;;;;;;;5137422;27;20904;-72
2021/05/11 06:34:09;;;;;;;3.90;2.43;;;;;;;;;;5133021;27;20450;-70
2021/05/11 06:36:37;;;;;;;7.93;3.03;;;;;;;;;;5137800;27;20485;-71
2021/05/11 06:39:09;;;;;;;7.07;2.33;;;;;;;;;;5137007;27;20462;-71
2021/05/11 06:41:37;;;;;;;6.00;1.80;;;;;;;;;;5138379;27;20450;-71
2021/05/11 06:44:07;;;;;;;3.67;1.80;;;;;;;;;;5137261;27;20826;-70
2021/05/11 06:54:53;;;;;;;4.03;1.50;;;;;;;;;;5136447;27;20500;-71
2021/05/11 06:57:20;;;;;;;5.27;1.50;;;;;;;;;;5136847;27;20462;-70
2021/05/11 06:59:51;;;;;;;3.17;1.80;;;;;;;;;;5135618;27;20461;-70
2021/05/11 07:02:19;;;;;;;5.00;1.57;;;;;;;;;;5136614;27;20842;-72
2021/05/11 07:04:47;;;;;;;3.30;1.53;;;;;;;;;;5135241;27;20897;-70
2021/05/11 07:07:16;;;;;;;3.50;1.60;;;;;;;;;;5134696;27;20574;-71
2021/05/11 07:10:00;;;;;;;4.07;1.73;;;;;;;;;;5132152;27;20885;-71
2021/05/11 07:15:20;;;;;;;7.37;1.50;;;;;;;;;;5135550;27;20465;-69
2021/05/11 07:18:01;;;;;;;5.47;3.83;;;;;;;;;;5135516;27;20468;-70
2021/05/11 07:20:45;;;;;;;6.37;1.33;;;;;;;;;;5131481;27;20449;-70
2021/05/11 07:23:20;;;;;;;3.60;1.60;;;;;;;;;;5135309;27;20450;-70
2021/05/11 07:26:00;;;;;;;4.53;1.43;;;;;;;;;;5135659;27;20442;-73
2021/05/11 07:31:06;;;;;;;9.20;1.97;;;;;;;;;;5135215;27;20450;-70
2021/05/11 07:33:39;;;;;;;4.73;1.80;;;;;;;;;;5134869;27;20859;-70
2021/05/11 07:36:08;;;;;;;5.70;1.50;;;;;;;;;;5135485;27;20474;-69
2021/05/11 07:38:37;;;;;;;2.67;1.60;;;;;;;;;;5134686;27;20466;-70
2021/05/11 07:41:12;;;;;;;4.17;1.53;;;;;;;;;;5135145;28;21007;-72
2021/05/11 07:43:41;;;;;;;3.70;1.70;;;;;;;;;;5135750;28;20446;-72
2021/05/11 07:46:30;;;;;;;6.00;1.93;;;;;;;;;;5134318;28;20464;-70
2021/05/11 08:14:32;;;;;;;4.90;1.90;;;;;;;;;;5135802;28;20600;-71
2021/05/11 08:17:01;;;;;;;4.33;1.60;;;;;;;;;;5131045;28;20616;-70
2021/05/11 08:19:46;;;;;;;2.83;1.53;;;;;;;;;;5135248;28;20458;-71
2021/05/11 08:28:00;;;;;;;5.00;1.67;;;;;;;;;;5130145;28;20493;-71
2021/05/11 08:30:28;;;;;;;6.40;1.23;;;;;;;;;;5116105;28;20443;-70
2021/05/11 08:32:56;;;;;;;3.93;1.40;;;;;;;;;;5130220;27;20544;-71
2021/05/11 08:35:31;;;;;;;6.27;1.43;;;;;;;;;;5134774;27;20486;-71
2021/05/11 08:37:59;;;;;;;2.60;1.13;;;;;;;;;;5132709;28;20689;-71
2021/05/11 08:40:31;;;;;;;2.73;1.53;;;;;;;;;;5134137;27;20458;-72
2021/05/11 08:43:08;;;;;;;3.80;1.63;;;;;;;;;;5134620;28;20496;-71
2021/05/11 08:45:47;;;;;;;7.60;1.27;;;;;;;;;;5136142;27;20450;-71
2021/05/11 08:48:19;;;;;;;3.07;1.20;;;;;;;;;;5133557;27;20443;-71
2021/05/11 08:50:52;;;;;;;3.50;2.77;;;;;;;;;;5137647;27;20493;-71
2021/05/11 09:04:50;;;;;;;5.43;1.57;;;;;;;;;;5121341;28;20450;-70
2021/05/11 09:24:43;;;;;;;7.30;2.13;;;;;;;;;;5125262;27;20436;-71
2021/05/11 09:27:22;;;;;;;3.63;1.00;;;;;;;;;;5135170;27;20438;-71
2021/05/11 09:32:46;;;;;;;2.30;1.20;;;;;;;;;;5133464;27;20434;-70
2021/05/11 09:55:04;;;;;;;2.50;1.10;;;;;;;;;;5136978;27;20449;-71
2021/05/11 09:57:42;;;;;;;3.30;1.10;;;;;;;;;;5135444;27;20542;-71
2021/05/11 10:49:32;;;;;;;2.33;1.03;;;;;;;;;;5113388;27;20442;-70
2021/05/11 10:52:14;;;;;;;3.10;1.50;;;;;;;;;;5137128;27;20496;-71
2021/05/11 10:54:44;;;;;;;3.83;0.80;;;;;;;;;;5136100;27;20452;-70
2021/05/11 10:57:29;;;;;;;2.43;0.80;;;;;;;;;;5136057;27;20885;-70
2021/05/11 11:00:09;;;;;;;3.20;0.83;;;;;;;;;;5136180;27;20562;-72
2021/05/11 11:05:43;;;;;;;2.50;1.10;;;;;;;;;;5136729;27;20438;-71
2021/05/11 11:08:39;;;;;;;;;;;;;;;;;;;;;
2021/05/11 11:11:12;;;;;;;3.00;0.90;;;;;;;;;;5117211;28;20446;-69
2021/05/11 11:13:41;;;;;;;1.77;0.80;;;;;;;;;;5116417;28;20533;-70
2021/05/11 11:16:13;;;;;;;1.90;0.80;;;;;;;;;;5115456;28;20584;-70
2021/05/11 11:18:48;;;;;;;6.67;1.03;;;;;;;;;;5118876;27;20492;-71
2021/05/11 11:21:33;;;;;;;2.00;1.10;;;;;;;;;;5136529;27;20970;-71
2021/05/11 11:24:02;;;;;;;2.40;1.50;;;;;;;;;;5135624;27;20454;-71
2021/05/11 11:26:32;;;;;;;3.80;1.00;;;;;;;;;;5134659;27;20874;-71
2021/05/11 11:29:02;;;;;;;2.53;0.70;;;;;;;;;;5133631;27;20474;-71
2021/05/11 11:31:32;;;;;;;5.20;1.10;;;;;;;;;;5134563;27;20611;-71
2021/05/11 11:34:16;;;;;;;2.43;0.93;;;;;;;;;;5134223;27;20453;-71
2021/05/11 11:36:51;;;;;;;2.53;0.73;;;;;;;;;;5136728;27;20540;-71
2021/05/11 11:39:28;;;;;;;1.87;1.00;;;;;;;;;;5130504;28;20454;-70
2021/05/11 11:42:39;;;;;;;3.57;1.93;;;;;;;;;;5134697;28;20453;-70
2021/05/11 11:45:15;;;;;;;5.97;1.30;;;;;;;;;;5130866;28;20756;-71
2021/05/11 11:47:50;;;;;;;2.10;1.03;;;;;;;;;;5135725;28;20442;-70
2021/05/11 11:50:22;;;;;;;4.17;1.20;;;;;;;;;;5134780;28;20449;-69
2021/05/11 11:58:35;;;;;;;2.93;1.00;;;;;;;;;;5134617;28;20734;-71
2021/05/11 12:01:13;;;;;;;2.30;1.00;;;;;;;;;;5113127;28;20549;-70
2021/05/11 12:03:44;;;;;;;3.50;1.17;;;;;;;;;;5131136;28;20442;-71
2021/05/11 12:06:28;;;;;;;2.53;1.00;;;;;;;;;;5115004;28;20449;-71
2021/05/11 12:08:56;;;;;;;3.30;1.00;;;;;;;;;;5131581;28;20455;-71
2021/05/11 12:11:26;;;;;;;6.30;1.07;;;;;;;;;;5130657;28;20458;-71
2021/05/11 12:13:53;;;;;;;3.17;2.10;;;;;;;;;;5134975;28;20453;-71
2021/05/11 12:16:23;;;;;;;2.90;1.30;;;;;;;;;;5137038;28;20489;-71
2021/05/11 12:19:12;;;;;;;2.43;1.10;;;;;;;;;;5136651;28;20454;-71
2021/05/11 12:22:06;;;;;;;;;;;;;;;;;;;;;
2021/05/11 12:24:35;;;;;;;2.23;0.87;;;;;;;;;;5133657;27;20446;-71
2021/05/11 12:27:15;;;;;;;4.33;1.30;;;;;;;;;;5134573;27;20495;-71
2021/05/11 12:30:04;;;;;;;2.33;0.97;;;;;;;;;;5119207;28;20458;-71
2021/05/11 12:32:35;;;;;;;2.53;1.00;;;;;;;;;;5118045;28;20608;-71
2021/05/11 12:35:09;;;;;;;2.60;1.10;;;;;;;;;;5134640;27;20454;-70
2021/05/11 12:37:49;;;;;;;2.23;1.00;;;;;;;;;;5139881;27;20488;-71
2021/05/11 12:40:29;;;;;;;3.17;1.20;;;;;;;;;;5133470;27;20818;-70
2021/05/11 12:42:58;;;;;;;2.97;1.30;;;;;;;;;;5136413;27;20445;-72
2021/05/11 12:45:26;;;;;;;2.83;1.20;;;;;;;;;;5137826;27;20450;-71
2021/05/11 12:47:56;;;;;;;2.40;1.37;;;;;;;;;;5137224;27;20513;-71
2021/05/11 12:50:27;;;;;;;2.13;1.13;;;;;;;;;;5138835;27;20449;-71
2021/05/11 12:52:57;;;;;;;3.00;1.10;;;;;;;;;;5139099;27;20446;-71
2021/05/11 12:56:01;;;;;;;3.40;1.27;;;;;;;;;;5137330;27;20849;-71
2021/05/11 12:58:41;;;;;;;3.97;1.63;;;;;;;;;;5138003;27;20552;-71
2021/05/11 13:01:28;;;;;;;3.60;1.30;;;;;;;;;;5138166;27;20469;-71
2021/05/11 13:26:30;;;;;;;4.53;1.60;;;;;;;;;;5137983;27;20452;-70
2021/05/11 13:29:02;;;;;;;2.70;0.93;;;;;;;;;;5133861;27;20613;-70
2021/05/11 13:31:51;;;;;;;3.23;0.87;;;;;;;;;;5137550;27;20712;-71
2021/05/11 13:34:20;;;;;;;3.13;1.13;;;;;;;;;;5139087;27;20438;-72
2021/05/11 13:36:50;;;;;;;2.60;0.80;;;;;;;;;;5136038;27;20478;-71
2021/05/11 13:39:19;;;;;;;2.80;1.70;;;;;;;;;;5136201;27;20476;-71
2021/05/11 13:41:48;;;;;;;3.30;1.60;;;;;;;;;;5139297;27;20486;-71
2021/05/11 13:44:15;;;;;;;2.97;1.00;;;;;;;;;;5137599;27;20490;-71
2021/05/11 13:46:49;;;;;;;2.90;0.80;;;;;;;;;;5139052;27;20446;-70
2021/05/11 13:49:23;;;;;;;1.60;1.00;;;;;;;;;;5130537;27;20454;-70
2021/05/11 13:52:14;;;;;;;4.40;1.03;;;;;;;;;;5139195;27;20461;-72
2021/05/11 13:55:14;;;;;;;3.13;1.27;;;;;;;;;;5137011;27;20825;-72
2021/05/11 14:03:22;;;;;;;5.43;1.47;;;;;;;;;;5137987;27;20543;-70
2021/05/11 14:05:51;;;;;;;2.10;1.07;;;;;;;;;;5137563;27;20442;-70
2021/05/11 14:08:21;;;;;;;1.83;1.13;;;;;;;;;;5137522;27;20446;-70
2021/05/11 14:10:52;;;;;;;5.70;3.50;;;;;;;;;;5137708;27;20464;-70
2021/05/11 14:13:28;;;;;;;2.07;1.10;;;;;;;;;;5139614;27;20452;-70
2021/05/11 14:16:28;;;;;;;1.57;0.70;;;;;;;;;;5137542;27;20513;-70
2021/05/11 14:19:21;;;;;;;;;;;;;;;;;;;;;
2021/05/11 14:21:52;;;;;;;2.10;0.90;;;;;;;;;;5130264;27;20445;-72
2021/05/11 14:24:26;;;;;;;2.90;1.13;;;;;;;;;;5136297;27;20443;-71
2021/05/11 14:26:54;;;;;;;3.30;0.90;;;;;;;;;;5138754;27;20553;-70
2021/05/11 14:29:39;;;;;;;2.93;0.90;;;;;;;;;;5137816;27;20803;-71
2021/05/11 14:32:14;;;;;;;4.00;1.40;;;;;;;;;;5116865;28;20458;-71
2021/05/11 14:34:45;;;;;;;3.93;1.10;;;;;;;;;;5136812;27;20472;-70
2021/05/11 14:37:12;;;;;;;1.43;0.70;;;;;;;;;;5125898;27;20765;-70
2021/05/11 14:40:05;;;;;;;5.30;1.47;;;;;;;;;;5136042;27;20454;-71
2021/05/11 14:42:36;;;;;;;3.40;1.10;;;;;;;;;;5136287;27;20458;-71
2021/05/11 14:45:18;;;;;;;2.33;1.33;;;;;;;;;;5135372;27;20492;-71
2021/05/11 14:47:46;;;;;;;6.17;1.90;;;;;;;;;;5134797;27;20485;-71
2021/05/11 14:50:29;;;;;;;2.77;0.97;;;;;;;;;;5135556;27;20514;-71
2021/05/11 14:53:00;;;;;;;3.40;1.40;;;;;;;;;;5131281;27;20843;-71
2021/05/11 14:55:39;;;;;;;2.50;1.20;;;;;;;;;;5135847;27;20492;-70
2021/05/11 14:58:33;;;;;;;3.23;1.30;;;;;;;;;;5135427;27;20458;-71
2021/05/11 15:01:12;;;;;;;3.03;1.30;;;;;;;;;;5136765;27;20453;-70
2021/05/11 15:03:57;;;;;;;3.10;1.50;;;;;;;;;;5133154;27;20456;-72
2021/05/11 15:06:43;;;;;;;1.77;1.10;;;;;;;;;;5134953;27;20477;-71
2021/05/11 15:09:28;;;;;;;2.53;1.17;;;;;;;;;;5118340;27;20542;-70
2021/05/11 15:12:03;;;;;;;3.93;1.10;;;;;;;;;;5131498;27;20449;-72
2021/05/11 15:14:38;;;;;;;4.37;1.37;;;;;;;;;;5135712;27;20472;-70
2021/05/11 15:20:16;;;;;;;2.33;1.10;;;;;;;;;;5119354;27;20517;-71
2021/05/11 15:22:51;;;;;;;2.60;1.30;;;;;;;;;;5133943;27;21056;-70
2021/05/11 15:25:21;;;;;;;3.07;1.03;;;;;;;;;;5134927;27;20441;-70
2021/05/11 15:27:54;;;;;;;2.70;1.10;;;;;;;;;;5135122;27;20938;-70
2021/05/11 15:30:23;;;;;;;5.10;2.07;;;;;;;;;;5134735;27;20458;-71
2021/05/11 15:33:00;;;;;;;2.40;1.00;;;;;;;;;;5134683;27;20519;-72
2021/05/11 15:35:30;;;;;;;3.37;1.33;;;;;;;;;;5135036;27;20489;-72
2021/05/11 15:37:59;;;;;;;4.17;1.40;;;;;;;;;;5134856;27;20872;-72
2021/05/11 15:40:28;;;;;;;3.03;1.20;;;;;;;;;;5135709;27;20744;-70
2021/05/11 15:42:56;;;;;;;2.00;1.17;;;;;;;;;;5135239;28;20467;-71
2021/05/11 15:45:26;;;;;;;5.17;1.30;;;;;;;;;;5135821;28;20485;-70
2021/05/11 15:48:01;;;;;;;3.83;1.63;;;;;;;;;;5136258;28;20442;-71
2021/05/11 15:50:38;;;;;;;3.80;1.10;;;;;;;;;;5136007;28;20457;-72
2021/05/11 15:53:11;;;;;;;2.80;1.03;;;;;;;;;;5135832;28;20447;-71
2021/05/11 15:55:39;;;;;;;4.13;1.57;;;;;;;;;;5136298;27;20454;-72
2021/05/11 15:58:08;;;;;;;3.03;1.23;;;;;;;;;;5139990;27;20481;-71
2021/05/11 16:00:37;;;;;;;5.53;2.00;;;;;;;;;;5138331;27;20465;-72
2021/05/11 16:03:08;;;;;;;4.30;1.60;;;;;;;;;;5138701;27;20446;-72
2021/05/11 16:05:38;;;;;;;3.20;1.27;;;;;;;;;;5139386;27;20454;-72
2021/05/11 16:08:12;;;;;;;2.90;0.90;;;;;;;;;;5138552;27;20446;-72
2021/05/11 16:10:40;;;;;;;2.63;1.50;;;;;;;;;;5138819;27;20453;-71
2021/05/11 16:13:25;;;;;;;3.33;1.27;;;;;;;;;;5139832;27;20514;-72
2021/05/11 16:15:54;;;;;;;3.13;1.50;;;;;;;;;;5139924;27;20579;-71
2021/05/11 16:18:29;;;;;;;3.60;1.33;;;;;;;;;;5139877;27;20438;-71
2021/05/11 16:20:59;;;;;;;3.40;1.07;;;;;;;;;;5139735;27;20445;-72
2021/05/11 16:23:30;;;;;;;1.97;1.40;;;;;;;;;;5139491;27;20462;-72
2021/05/11 16:25:59;;;;;;;6.90;1.43;;;;;;;;;;5138672;27;20892;-71
2021/05/11 16:28:26;;;;;;;5.00;1.83;;;;;;;;;;5138701;27;20469;-70
2021/05/11 16:30:54;;;;;;;2.17;1.23;;;;;;;;;;5138465;27;20450;-70
2021/05/11 16:33:22;;;;;;;4.97;1.30;;;;;;;;;;5139572;27;20454;-71
2021/05/11 16:35:51;;;;;;;3.10;0.97;;;;;;;;;;5139717;27;20539;-71
2021/05/11 16:38:26;;;;;;;3.53;1.10;;;;;;;;;;5139283;27;20450;-71
2021/05/11 16:40:56;;;;;;;1.90;0.90;;;;;;;;;;5119378;27;20447;-70
2021/05/11 16:43:24;;;;;;;4.90;1.33;;;;;;;;;;5119103;28;20527;-71
2021/05/11 16:45:51;;;;;;;3.00;1.17;;;;;;;;;;5118597;28;20788;-71
2021/05/11 16:48:18;;;;;;;3.30;1.20;;;;;;;;;;5123829;27;20541;-72
2021/05/11 16:50:45;;;;;;;3.40;1.33;;;;;;;;;;5120688;28;20450;-70
2021/05/11 16:53:37;;;;;;;3.00;1.57;;;;;;;;;;5119151;28;20465;-71
2021/05/11 16:56:10;;;;;;;3.20;0.97;;;;;;;;;;5130298;27;20572;-69
2021/05/11 16:58:56;;;;;;;4.30;1.60;;;;;;;;;;5124893;27;20466;-72
2021/05/11 17:01:35;;;;;;;2.30;1.10;;;;;;;;;;5136305;27;20480;-70
2021/05/11 17:04:02;;;;;;;3.30;1.37;;;;;;;;;;5139802;27;20454;-70
2021/05/11 17:06:33;;;;;;;5.43;1.93;;;;;;;;;;5139174;27;20846;-71
2021/05/11 17:09:03;;;;;;;11.40;2.80;;;;;;;;;;5131083;27;20486;-71
2021/05/11 17:11:32;;;;;;;3.30;1.37;;;;;;;;;;5132782;27;20442;-71
2021/05/11 17:14:01;;;;;;;3.40;1.73;;;;;;;;;;5119335;27;20549;-72
2021/05/11 17:16:28;;;;;;;8.23;1.93;;;;;;;;;;5120900;27;20474;-70
2021/05/11 17:19:17;;;;;;;6.07;2.07;;;;;;;;;;5119492;28;20451;-70
2021/05/11 17:21:44;;;;;;;4.63;1.60;;;;;;;;;;5118182;28;20867;-70
2021/05/11 17:24:13;;;;;;;4.27;2.57;;;;;;;;;;5117763;28;20448;-71
2021/05/11 17:26:40;;;;;;;4.50;2.40;;;;;;;;;;5132122;27;20523;-70
2021/05/11 17:29:08;;;;;;;4.13;1.90;;;;;;;;;;5132191;27;20998;-71
2021/05/11 17:31:41;;;;;;;3.97;1.90;;;;;;;;;;5138572;27;20438;-71
2021/05/11 17:34:11;;;;;;;3.50;1.90;;;;;;;;;;5138250;27;20540;-71
2021/05/11 17:36:39;;;;;;;5.10;2.17;;;;;;;;;;5137848;27;20486;-71
2021/05/11 17:39:06;;;;;;;4.53;1.83;;;;;;;;;;5137376;27;20839;-70
2021/05/11 17:41:38;;;;;;;4.33;2.00;;;;;;;;;;5136758;27;20583;-71
2021/05/11 17:44:06;;;;;;;7.23;2.57;;;;;;;;;;5138047;27;20936;-71
2021/05/11 17:46:37;;;;;;;5.60;2.17;;;;;;;;;;5138090;27;20442;-71
2021/05/11 17:49:14;;;;;;;4.43;1.97;;;;;;;;;;5133063;27;20541;-71
2021/05/11 17:51:42;;;;;;;5.30;1.70;;;;;;;;;;5138553;27;20445;-71
2021/05/11 17:54:09;;;;;;;7.43;2.20;;;;;;;;;;5136836;27;20945;-70
2021/05/11 17:56:42;;;;;;;3.60;1.53;;;;;;;;;;5136252;27;20470;-70
2021/05/11 17:59:11;;;;;;;3.40;1.50;;;;;;;;;;5125980;27;20440;-70
2021/05/11 18:02:12;;;;;;;5.10;1.50;;;;;;;;;;5121865;27;20563;-70
2021/05/11 18:04:43;;;;;;;4.60;1.60;;;;;;;;;;5105620;27;20536;-70
2021/05/11 18:07:11;;;;;;;5.30;1.63;;;;;;;;;;5137145;27;20451;-71
2021/05/11 18:09:41;;;;;;;4.73;1.63;;;;;;;;;;5137124;27;20851;-70
2021/05/11 18:12:10;;;;;;;4.00;1.20;;;;;;;;;;5135577;27;20454;-70
2021/05/11 18:14:54;;;;;;;;;;;;;;;;;;;;;
2021/05/11 18:17:22;;;;;;;2.07;1.10;;;;;;;;;;5136820;27;20477;-71
2021/05/11 18:19:50;;;;;;;1.90;1.23;;;;;;;;;;5135788;27;20445;-71
2021/05/11 18:22:18;;;;;;;2.80;1.47;;;;;;;;;;5117707;27;20451;-71
2021/05/11 18:24:46;;;;;;;5.90;3.13;;;;;;;;;;5134884;27;20450;-70
2021/05/11 18:27:23;;;;;;;2.93;1.73;;;;;;;;;;5139037;27;20454;-71
2021/05/11 18:30:07;;;;;;;3.23;1.03;;;;;;;;;;5137296;27;20454;-71
2021/05/11 18:32:37;;;;;;;3.60;1.00;;;;;;;;;;5131277;27;20451;-72
2021/05/11 18:35:05;;;;;;;4.23;1.60;;;;;;;;;;5126681;27;20464;-71
2021/05/11 18:37:34;;;;;;;3.40;1.50;;;;;;;;;;5137405;27;20474;-71
2021/05/11 18:40:06;;;;;;;4.57;0.97;;;;;;;;;;5136550;27;20462;-71
2021/05/11 18:42:35;;;;;;;3.93;1.53;;;;;;;;;;5122970;27;20733;-71
2021/05/11 18:45:03;;;;;;;3.93;1.37;;;;;;;;;;5136994;27;20477;-70
2021/05/11 18:47:30;;;;;;;5.30;1.37;;;;;;;;;;5137375;27;20729;-70
2021/05/11 18:50:01;;;;;;;6.87;1.30;;;;;;;;;;5138038;27;20472;-72
2021/05/11 18:52:28;;;;;;;4.27;1.07;;;;;;;;;;5137093;27;20450;-72
2021/05/11 18:55:00;;;;;;;3.77;1.10;;;;;;;;;;5133523;27;20455;-71
2021/05/11 18:57:28;;;;;;;2.13;1.30;;;;;;;;;;5137434;27;20486;-71
2021/05/11 18:59:58;;;;;;;5.87;3.10;;;;;;;;;;5138029;27;20446;-71
2021/05/11 19:02:27;;;;;;;3.20;1.40;;;;;;;;;;5136951;27;20481;-71
2021/05/11 19:04:54;;;;;;;4.10;1.40;;;;;;;;;;5137088;27;20450;-71
2021/05/11 19:07:30;;;;;;;2.80;1.37;;;;;;;;;;5133512;27;20470;-71
2021/05/11 19:10:02;;;;;;;2.33;1.10;;;;;;;;;;5136726;27;20456;-71